createdAt,value
2022-12-20T00:01:31.019Z,192.53
2022-12-20T00:04:02.512Z,164.43
2022-12-20T00:06:30.027Z,147.10
2022-12-20T00:09:00.210Z,100.23
2022-12-20T00:11:28.779Z,90.07
2022-12-20T00:13:56.282Z,78.00
2022-12-20T00:16:27.942Z,73.87
2022-12-20T00:18:58.262Z,73.47
2022-12-20T00:21:26.013Z,84.63
2022-12-20T00:23:54.267Z,120.67
2022-12-20T00:26:28.628Z,143.63
2022-12-20T00:28:56.866Z,125.60
2022-12-20T00:31:25.720Z,166.70
2022-12-20T00:33:54.627Z,108.37
2022-12-20T00:36:23.328Z,118.23
2022-12-20T00:38:52.695Z,125.50
2022-12-20T00:41:22.691Z,92.83
2022-12-20T00:43:53.460Z,99.40
2022-12-20T00:46:23.781Z,76.23
2022-12-20T00:48:53.320Z,76.53
2022-12-20T00:51:26.407Z,81.30
2022-12-20T00:53:54.187Z,71.67
2022-12-20T00:56:21.889Z,77.50
2022-12-20T00:58:49.267Z,159.83
2022-12-20T01:01:30.514Z,170.67
2022-12-20T01:03:58.358Z,120.27
2022-12-20T01:06:26.090Z,135.67
2022-12-20T01:08:54.917Z,138.40
2022-12-20T01:11:24.736Z,143.83
2022-12-20T01:13:54.878Z,97.10
2022-12-20T01:16:30.643Z,134.77
2022-12-20T01:18:58.287Z,111.10
2022-12-20T01:21:26.555Z,113.43
2022-12-20T01:23:54.533Z,146.13
2022-12-20T01:26:23.714Z,139.77
2022-12-20T01:28:55.002Z,123.30
2022-12-20T01:31:23.009Z,117.77
2022-12-20T01:33:51.231Z,110.00
2022-12-20T01:36:27.156Z,131.63
2022-12-20T01:39:23.747Z,111.57
2022-12-20T01:41:50.877Z,113.50
2022-12-20T01:44:57.489Z,151.70
2022-12-20T01:47:26.872Z,118.43
2022-12-20T01:49:56.830Z,130.27
2022-12-20T01:52:36.855Z,143.63
2022-12-20T01:55:33.594Z,119.37
2022-12-20T01:58:05.150Z,141.93
2022-12-20T02:00:32.596Z,146.13
2022-12-20T02:03:04.130Z,131.33
2022-12-20T02:05:48.103Z,142.27
2022-12-20T02:08:18.789Z,143.67
2022-12-20T02:11:29.618Z,146.93
2022-12-20T02:14:28.010Z,143.07
2022-12-20T02:17:11.411Z,112.50
2022-12-20T02:20:33.169Z,106.33
2022-12-20T02:23:37.224Z,96.73
2022-12-20T02:26:46.953Z,84.47
2022-12-20T02:29:38.668Z,87.73
2022-12-20T02:32:22.552Z,73.63
2022-12-20T02:34:51.258Z,76.20
2022-12-20T02:37:18.582Z,73.47
2022-12-20T02:39:46.816Z,89.77
2022-12-20T02:42:18.804Z,62.13
2022-12-20T02:45:11.380Z,85.90
2022-12-20T02:48:03.125Z,62.00
2022-12-20T02:50:41.193Z,80.27
2022-12-20T02:53:09.398Z,70.17
2022-12-20T02:56:05.493Z,140.90
2022-12-20T02:59:07.621Z,145.83
2022-12-20T03:01:40.915Z,110.20
2022-12-20T03:04:08.992Z,146.87
2022-12-20T03:06:36.072Z,99.00
2022-12-20T03:09:03.658Z,112.10
2022-12-20T03:11:33.972Z,77.67
2022-12-20T03:14:01.123Z,126.03
2022-12-20T03:16:28.260Z,156.53
2022-12-20T03:18:55.657Z,104.77
2022-12-20T03:21:22.829Z,113.10
2022-12-20T03:23:49.903Z,131.37
2022-12-20T03:26:17.069Z,138.70
2022-12-20T03:28:48.696Z,126.17
2022-12-20T03:31:20.284Z,184.93
2022-12-20T03:33:51.879Z,142.00
2022-12-20T03:36:23.656Z,185.80
2022-12-20T03:38:55.865Z,134.73
2022-12-20T03:41:25.931Z,130.73
2022-12-20T03:43:53.408Z,356.60
2022-12-20T03:46:22.457Z,533.33
2022-12-20T03:48:49.858Z,140.23
2022-12-20T03:51:17.228Z,580.30
2022-12-20T03:53:45.451Z,967.10
2022-12-20T03:56:14.143Z,1665.60
2022-12-20T03:58:43.012Z,381.00
2022-12-20T04:01:21.916Z,609.53
2022-12-20T04:03:51.247Z,304.50
2022-12-20T04:06:19.969Z,282.40
2022-12-20T04:08:47.467Z,239.77
2022-12-20T04:11:21.733Z,170.37
2022-12-20T04:14:02.103Z,132.87
2022-12-20T04:16:30.396Z,109.37
2022-12-20T04:18:57.794Z,110.90
2022-12-20T04:21:29.270Z,88.53
2022-12-20T04:23:59.607Z,119.20
2022-12-20T04:26:36.408Z,413.87
2022-12-20T04:29:04.830Z,118.20
2022-12-20T04:31:32.689Z,107.87
2022-12-20T04:34:00.571Z,126.03
2022-12-20T04:36:29.577Z,125.63
2022-12-20T04:38:59.009Z,105.80
2022-12-20T04:41:27.251Z,164.17
2022-12-20T04:44:03.261Z,174.93
2022-12-20T04:46:37.059Z,353.03
2022-12-20T04:49:06.724Z,214.50
2022-12-20T04:51:36.947Z,402.43
2022-12-20T04:54:05.689Z,186.23
2022-12-20T04:56:44.360Z,198.77
2022-12-20T04:59:16.115Z,285.37
2022-12-20T05:01:45.972Z,122.23
2022-12-20T05:04:17.888Z,146.17
2022-12-20T05:06:45.284Z,236.13
2022-12-20T05:09:12.947Z,264.60
2022-12-20T05:11:40.355Z,562.63
2022-12-20T05:14:09.054Z,388.17
2022-12-20T05:16:37.700Z,454.43
2022-12-20T05:19:06.506Z,224.30
2022-12-20T05:21:57.920Z,600.20
2022-12-20T05:24:43.773Z,627.40
2022-12-20T05:27:27.745Z,856.00
2022-12-20T05:29:55.363Z,686.60
2022-12-20T05:32:22.486Z,596.23
2022-12-20T05:34:49.930Z,725.47
2022-12-20T05:37:18.749Z,672.47
2022-12-20T05:39:46.991Z,258.40
2022-12-20T05:42:19.439Z,595.40
2022-12-20T05:44:50.072Z,553.70
2022-12-20T05:47:17.427Z,272.40
2022-12-20T05:49:44.799Z,256.00
2022-12-20T05:52:11.878Z,225.87
2022-12-20T05:54:41.156Z,86.87
2022-12-20T05:57:18.667Z,98.23
2022-12-20T05:59:47.191Z,72.30
2022-12-20T06:02:20.690Z,58.03
2022-12-20T06:04:51.713Z,43.20
2022-12-20T06:07:24.321Z,50.40
2022-12-20T06:09:56.942Z,59.93
2022-12-20T06:12:29.753Z,67.17
2022-12-20T06:14:57.432Z,63.97
2022-12-20T06:17:24.812Z,46.50
2022-12-20T06:19:53.259Z,34.90
2022-12-20T06:22:20.359Z,34.13
2022-12-20T06:24:55.445Z,48.10
2022-12-20T06:27:26.768Z,78.20
2022-12-20T06:30:06.439Z,88.40
2022-12-20T06:32:45.520Z,170.50
2022-12-20T06:35:14.745Z,138.60
2022-12-20T06:37:42.765Z,159.20
2022-12-20T06:40:11.631Z,86.93
2022-12-20T06:42:38.979Z,95.03
2022-12-20T06:45:08.179Z,82.33
2022-12-20T06:47:36.341Z,67.73
2022-12-20T06:50:05.670Z,88.87
2022-12-20T06:52:33.250Z,101.63
2022-12-20T06:55:00.516Z,64.37
2022-12-20T06:57:28.855Z,59.50
2022-12-20T06:59:56.674Z,50.70
2022-12-20T07:02:27.294Z,67.87
2022-12-20T07:04:54.868Z,68.03
2022-12-20T07:07:22.007Z,45.27
2022-12-20T07:09:49.172Z,45.03
2022-12-20T07:12:16.461Z,37.30
2022-12-20T07:14:43.645Z,46.30
2022-12-20T07:17:10.856Z,86.80
2022-12-20T07:19:38.153Z,44.45
2022-12-20T07:22:05.788Z,44.47
2022-12-20T07:24:34.480Z,39.47
2022-12-20T07:27:02.294Z,41.47
2022-12-20T07:29:29.507Z,40.37
2022-12-20T07:31:56.661Z,73.17
2022-12-20T07:34:24.062Z,51.27
2022-12-20T07:36:53.173Z,41.93
2022-12-20T07:39:20.376Z,39.90
2022-12-20T07:41:47.444Z,37.47
2022-12-20T07:44:16.989Z,32.67
2022-12-20T07:46:44.233Z,33.13
2022-12-20T07:49:11.317Z,30.47
2022-12-20T07:51:52.144Z,33.97
2022-12-20T07:54:33.585Z,32.60
2022-12-20T07:57:07.228Z,40.07
2022-12-20T07:59:41.871Z,46.73
2022-12-20T08:02:15.816Z,48.10
2022-12-20T08:04:44.018Z,46.77
2022-12-20T08:07:11.688Z,53.33
2022-12-20T08:09:42.551Z,45.53
2022-12-20T08:12:13.784Z,45.83
2022-12-20T08:14:41.485Z,40.43
2022-12-20T08:17:08.582Z,42.30
2022-12-20T08:19:35.729Z,39.00
2022-12-20T08:22:04.123Z,44.07
2022-12-20T08:24:31.445Z,38.40
2022-12-20T08:26:58.641Z,33.37
2022-12-20T08:29:25.825Z,39.63
2022-12-20T08:31:52.902Z,36.27
2022-12-20T08:34:20.196Z,36.40
2022-12-20T08:36:47.194Z,36.83
2022-12-20T08:39:14.345Z,31.77
2022-12-20T08:41:41.839Z,33.10
2022-12-20T08:44:10.375Z,31.90
2022-12-20T08:46:37.796Z,27.93
2022-12-20T08:49:05.545Z,37.47
2022-12-20T08:51:32.650Z,31.83
2022-12-20T08:54:00.019Z,25.73
2022-12-20T08:56:27.119Z,19.00
2022-12-20T08:58:54.425Z,25.37
2022-12-20T09:01:23.039Z,19.50
2022-12-20T09:03:50.435Z,17.50
2022-12-20T09:06:20.423Z,20.63
2022-12-20T09:08:48.897Z,17.23
2022-12-20T09:11:19.513Z,19.07
2022-12-20T09:13:48.457Z,20.20
2022-12-20T09:16:18.323Z,23.43
2022-12-20T09:18:49.302Z,20.73
2022-12-20T09:21:16.839Z,24.90
2022-12-20T09:23:43.867Z,20.37
2022-12-20T09:26:13.217Z,21.27
2022-12-20T09:28:40.868Z,18.90
2022-12-20T09:31:11.739Z,18.47
2022-12-20T09:33:39.381Z,20.40
2022-12-20T09:36:07.478Z,21.20
2022-12-20T09:38:34.602Z,18.23
2022-12-20T09:41:05.160Z,20.10
2022-12-20T09:43:33.205Z,25.47
2022-12-20T09:46:02.520Z,26.40
2022-12-20T09:48:33.770Z,24.63
2022-12-20T09:51:35.398Z,20.90
2022-12-20T09:54:33.333Z,21.70
2022-12-20T09:57:14.812Z,25.70
2022-12-20T09:59:49.299Z,17.37
2022-12-20T10:05:54.888Z,18.43
2022-12-20T10:08:46.641Z,20.63
2022-12-20T10:11:52.718Z,18.30
2022-12-20T10:15:13.565Z,20.03
2022-12-20T10:17:56.145Z,22.47
2022-12-20T10:20:59.170Z,23.60
2022-12-20T10:23:39.982Z,29.50
2022-12-20T10:26:12.170Z,28.80
2022-12-20T10:28:41.075Z,28.47
2022-12-20T10:31:13.705Z,29.13
2022-12-20T10:33:41.538Z,28.90
2022-12-20T10:36:27.168Z,23.63
2022-12-20T10:38:58.825Z,26.50
2022-12-20T10:41:32.351Z,27.60
2022-12-20T10:44:04.762Z,30.43
2022-12-20T10:46:44.133Z,31.03
2022-12-20T10:49:37.195Z,29.07
2022-12-20T10:52:13.283Z,22.57
2022-12-20T10:54:45.468Z,25.60
2022-12-20T10:57:33.036Z,35.17
2022-12-20T11:00:03.108Z,26.03
2022-12-20T11:02:42.156Z,29.00
2022-12-20T11:05:30.187Z,28.10
2022-12-20T11:10:48.457Z,33.37
2022-12-20T11:13:24.416Z,38.80
2022-12-20T11:15:57.042Z,34.53
2022-12-20T11:18:47.037Z,37.00
2022-12-20T11:21:35.059Z,30.60
2022-12-20T11:24:13.829Z,27.60
2022-12-20T11:27:00.741Z,26.93
2022-12-20T11:30:11.035Z,28.20
2022-12-20T11:33:15.971Z,31.60
2022-12-20T11:36:00.832Z,32.40
2022-12-20T11:38:50.469Z,31.10
2022-12-20T11:41:49.189Z,30.27
2022-12-20T11:45:06.662Z,29.10
2022-12-20T11:48:23.515Z,22.23
2022-12-20T11:51:26.263Z,24.50
2022-12-20T11:54:03.175Z,29.67
2022-12-20T11:56:44.806Z,25.90
2022-12-20T11:59:36.802Z,22.57
2022-12-20T12:02:28.080Z,23.07
2022-12-20T12:05:00.180Z,17.33
2022-12-20T12:07:32.954Z,18.37
2022-12-20T12:10:16.898Z,15.17
2022-12-20T12:12:51.603Z,17.43
2022-12-20T12:15:35.334Z,20.53
2022-12-20T12:18:13.940Z,15.77
2022-12-20T12:21:22.824Z,24.87
2022-12-20T12:24:26.811Z,26.93
2022-12-20T12:26:54.079Z,21.43
2022-12-20T12:29:22.208Z,25.17
2022-12-20T12:32:17.897Z,23.77
2022-12-20T12:35:33.762Z,28.23
2022-12-20T12:38:45.135Z,19.47
2022-12-20T12:42:01.737Z,21.20
2022-12-20T12:44:47.060Z,18.93
2022-12-20T12:47:23.717Z,22.90
2022-12-20T12:49:53.254Z,22.57
2022-12-20T12:52:49.561Z,26.20
2022-12-20T12:55:39.337Z,25.60
2022-12-20T12:59:05.393Z,22.80
2022-12-20T13:01:56.782Z,19.43
2022-12-20T13:04:29.876Z,23.70
2022-12-20T13:07:02.878Z,25.10
2022-12-20T13:09:41.009Z,23.17
2022-12-20T13:12:53.331Z,17.83
2022-12-20T13:15:50.760Z,21.47
2022-12-20T13:18:23.146Z,19.57
2022-12-20T13:21:44.855Z,10.73
2022-12-20T13:24:55.808Z,17.03
2022-12-20T13:27:43.470Z,18.77
2022-12-20T13:30:30.971Z,20.13
2022-12-20T13:33:15.749Z,20.70
2022-12-20T13:35:57.057Z,20.27
2022-12-20T13:38:53.391Z,20.80
2022-12-20T13:41:35.808Z,27.60
2022-12-20T13:44:36.360Z,18.40
2022-12-20T13:47:27.714Z,18.80
2022-12-20T13:49:54.834Z,13.07
2022-12-20T13:52:42.935Z,23.17
2022-12-20T13:55:25.133Z,34.40
2022-12-20T13:57:53.890Z,28.30
2022-12-20T14:00:26.434Z,30.53
2022-12-20T14:02:54.633Z,16.13
2022-12-20T14:05:27.375Z,14.40
2022-12-20T14:08:06.228Z,14.40
2022-12-20T14:10:35.363Z,14.33
2022-12-20T14:13:03.171Z,19.97
2022-12-20T14:15:35.090Z,23.13
2022-12-20T14:18:16.026Z,25.07
2022-12-20T14:20:44.468Z,13.27
2022-12-20T14:23:26.619Z,14.97
2022-12-20T14:25:59.965Z,8.97
2022-12-20T14:28:47.670Z,8.73
2022-12-20T14:31:45.027Z,9.57
2022-12-20T14:34:27.433Z,9.80
2022-12-20T14:37:35.480Z,10.23
2022-12-20T14:40:23.166Z,7.27
2022-12-20T14:42:50.372Z,10.23
2022-12-20T14:45:24.075Z,10.50
2022-12-20T14:48:16.217Z,16.63
2022-12-20T14:50:53.349Z,11.27
2022-12-20T14:53:28.899Z,7.67
2022-12-20T14:55:57.135Z,9.03
2022-12-20T14:58:33.496Z,9.67
2022-12-20T15:01:04.168Z,10.80
2022-12-20T15:03:31.505Z,7.80
2022-12-20T15:06:00.099Z,8.67
2022-12-20T15:08:29.838Z,16.80
2022-12-20T15:11:18.036Z,28.03
2022-12-20T15:13:54.621Z,23.20
2022-12-20T15:16:27.412Z,17.20
2022-12-20T15:19:00.345Z,10.13
2022-12-20T15:21:43.053Z,19.60
2022-12-20T15:24:25.892Z,22.87
2022-12-20T15:26:53.464Z,20.53
2022-12-20T15:29:23.323Z,16.57
2022-12-20T15:31:52.475Z,14.43
2022-12-20T15:34:29.161Z,13.27
2022-12-20T15:36:56.903Z,14.73
2022-12-20T15:39:24.820Z,12.17
2022-12-20T15:41:52.536Z,14.37
2022-12-20T15:44:24.680Z,13.10
2022-12-20T15:46:52.570Z,13.23
2022-12-20T15:49:29.831Z,8.63
2022-12-20T15:51:57.009Z,10.70
2022-12-20T15:54:30.609Z,12.87
2022-12-20T15:57:00.093Z,13.50
2022-12-20T16:02:29.317Z,16.00
2022-12-20T16:04:57.663Z,11.10
2022-12-20T16:07:25.040Z,12.47
2022-12-20T16:09:52.202Z,10.20
2022-12-20T16:12:26.811Z,10.30
2022-12-20T16:14:54.026Z,15.63
2022-12-20T16:17:21.161Z,13.93
2022-12-20T16:19:48.345Z,16.23
2022-12-20T16:22:17.849Z,32.03
2022-12-20T16:24:46.120Z,23.07
2022-12-20T16:27:13.264Z,14.00
2022-12-20T16:29:41.716Z,32.13
2022-12-20T16:32:19.976Z,29.93
2022-12-20T16:34:48.793Z,33.37
2022-12-20T16:37:16.197Z,35.60
2022-12-20T16:39:43.396Z,34.73
2022-12-20T16:42:22.442Z,21.53
2022-12-20T16:44:53.899Z,35.00
2022-12-20T16:47:21.819Z,38.13
2022-12-20T16:49:52.666Z,235.97
2022-12-20T16:52:22.330Z,39.57
2022-12-20T16:54:50.031Z,32.97
2022-12-20T16:57:17.159Z,29.17
2022-12-20T16:59:44.841Z,29.93
2022-12-20T17:02:33.344Z,22.90
2022-12-20T17:05:01.300Z,25.77
2022-12-20T17:07:28.353Z,24.17
2022-12-20T17:09:55.527Z,30.47
2022-12-20T17:12:23.107Z,28.77
2022-12-20T17:14:50.551Z,27.63
2022-12-20T17:17:17.927Z,24.87
2022-12-20T17:19:45.115Z,36.27
2022-12-20T17:24:57.121Z,24.17
2022-12-20T17:27:24.268Z,30.10
2022-12-20T17:29:52.279Z,37.93
2022-12-20T17:32:28.695Z,38.33
2022-12-20T17:34:57.010Z,62.97
2022-12-20T17:37:25.139Z,35.90
2022-12-20T17:39:52.431Z,24.83
2022-12-20T17:42:19.565Z,23.87
2022-12-20T17:44:46.710Z,27.10
2022-12-20T17:47:13.930Z,27.50
2022-12-20T17:49:41.103Z,20.40
2022-12-20T17:52:15.831Z,23.83
2022-12-20T17:54:43.084Z,31.30
2022-12-20T17:57:15.527Z,18.83
2022-12-20T17:59:43.095Z,17.07
2022-12-20T18:02:22.600Z,16.43
2022-12-20T18:04:50.567Z,28.07
2022-12-20T18:07:17.969Z,33.53
2022-12-20T18:09:47.891Z,39.40
2022-12-20T18:12:15.071Z,33.87
2022-12-20T18:14:42.158Z,32.93
2022-12-20T18:17:09.361Z,30.20
2022-12-20T18:19:36.654Z,33.53
2022-12-20T18:22:04.944Z,30.80
2022-12-20T18:24:32.176Z,36.07
2022-12-20T18:26:59.266Z,36.30
2022-12-20T18:29:26.395Z,36.30
2022-12-20T18:31:53.559Z,38.23
2022-12-20T18:34:20.757Z,35.60
2022-12-20T18:36:47.832Z,44.77
2022-12-20T18:39:15.225Z,32.40
2022-12-20T18:41:44.350Z,35.33
2022-12-20T18:44:11.991Z,43.50
2022-12-20T18:46:39.574Z,43.43
2022-12-20T18:49:06.984Z,44.00
2022-12-20T18:51:36.884Z,43.00
2022-12-20T18:54:06.571Z,45.00
2022-12-20T18:56:36.490Z,40.40
2022-12-20T18:59:10.896Z,33.53
2022-12-20T19:01:40.563Z,31.87
2022-12-20T19:04:08.657Z,41.93
2022-12-20T19:06:37.517Z,46.83
2022-12-20T19:09:07.462Z,42.93
2022-12-20T19:11:34.678Z,44.47
2022-12-20T19:14:01.791Z,45.63
2022-12-20T19:16:32.370Z,51.70
2022-12-20T19:19:01.472Z,41.20
2022-12-20T19:21:31.114Z,36.67
2022-12-20T19:24:00.691Z,34.07
2022-12-20T19:26:28.738Z,29.80
2022-12-20T19:28:57.011Z,35.00
2022-12-20T19:31:26.464Z,35.00
2022-12-20T19:34:07.731Z,28.83
2022-12-20T19:36:48.575Z,33.80
2022-12-20T19:39:20.661Z,39.47
2022-12-20T19:42:16.865Z,39.20
2022-12-20T19:44:35.682Z,41.83
2022-12-20T19:47:06.187Z,39.77
2022-12-20T19:49:35.541Z,33.00
2022-12-20T19:52:02.898Z,27.23
2022-12-20T19:54:30.044Z,21.93
2022-12-20T19:56:58.649Z,15.33
2022-12-20T19:59:30.827Z,17.80
2022-12-20T20:01:58.165Z,18.87
2022-12-20T20:04:25.365Z,18.57
2022-12-20T20:06:52.514Z,30.67
2022-12-20T20:09:19.669Z,43.50
2022-12-20T20:11:46.800Z,37.70
2022-12-20T20:14:14.434Z,43.30
2022-12-20T20:16:41.604Z,36.23
2022-12-20T20:19:09.711Z,35.53
2022-12-20T20:21:37.936Z,36.27
2022-12-20T20:24:05.839Z,25.73
2022-12-20T20:26:33.027Z,23.17
2022-12-20T20:29:01.988Z,17.93
2022-12-20T20:31:29.479Z,31.60
2022-12-20T20:33:58.105Z,40.53
2022-12-20T20:36:25.472Z,41.13
2022-12-20T20:38:52.743Z,37.10
2022-12-20T20:41:20.531Z,40.70
2022-12-20T20:43:48.125Z,42.03
2022-12-20T20:46:17.451Z,40.70
2022-12-20T20:48:45.212Z,41.80
2022-12-20T20:51:12.641Z,36.23
2022-12-20T20:53:39.819Z,34.77
2022-12-20T20:56:08.220Z,35.47
2022-12-20T20:58:35.912Z,42.80
2022-12-20T21:01:05.627Z,41.93
2022-12-20T21:03:32.964Z,48.13
2022-12-20T21:08:47.324Z,49.23
2022-12-20T21:11:14.673Z,39.40
2022-12-20T21:13:41.961Z,39.37
2022-12-20T21:16:14.504Z,34.57
2022-12-20T21:18:41.764Z,36.30
2022-12-20T21:21:10.752Z,38.30
2022-12-20T21:23:38.825Z,42.10
2022-12-20T21:26:07.728Z,33.47
2022-12-20T21:28:35.920Z,41.37
2022-12-20T21:31:05.598Z,31.20
2022-12-20T21:33:32.839Z,28.83
2022-12-20T21:36:08.575Z,28.27
2022-12-20T21:38:35.728Z,28.73
2022-12-20T21:41:04.825Z,48.27
2022-12-20T21:43:32.201Z,41.00
2022-12-20T21:45:59.801Z,42.03
2022-12-20T21:48:27.935Z,43.57
2022-12-20T21:51:03.326Z,35.23
2022-12-20T21:53:32.394Z,30.67
2022-12-20T21:56:00.503Z,27.30
2022-12-20T21:58:29.733Z,27.27
2022-12-20T22:00:57.576Z,20.93
2022-12-20T22:03:25.795Z,22.37
2022-12-20T22:05:55.828Z,28.53
2022-12-20T22:08:24.679Z,24.83
2022-12-20T22:11:04.107Z,25.67
2022-12-20T22:13:37.279Z,34.43
2022-12-20T22:16:17.445Z,34.87
2022-12-20T22:18:48.058Z,39.70
2022-12-20T22:21:15.845Z,37.60
2022-12-20T22:23:43.249Z,38.70
2022-12-20T22:26:13.168Z,43.30
2022-12-20T22:28:45.198Z,39.90
2022-12-20T22:31:12.443Z,45.87
2022-12-20T22:33:40.733Z,36.63
2022-12-20T22:36:09.019Z,39.00
2022-12-20T22:38:36.147Z,28.17
2022-12-20T22:41:30.305Z,30.90
2022-12-20T22:44:00.473Z,36.10
2022-12-20T22:46:29.593Z,44.77
2022-12-20T22:48:58.193Z,35.67
2022-12-20T22:51:27.483Z,39.00
2022-12-20T22:53:57.297Z,34.83
2022-12-20T22:56:24.418Z,38.97
2022-12-20T22:58:51.691Z,41.20
2022-12-20T23:01:20.510Z,35.23
2022-12-20T23:03:48.431Z,37.47
2022-12-20T23:06:18.295Z,38.17
2022-12-20T23:08:45.396Z,41.30
2022-12-20T23:11:38.896Z,36.60
2022-12-20T23:14:28.311Z,40.67
2022-12-20T23:16:55.470Z,38.37
2022-12-20T23:19:22.563Z,32.07
2022-12-20T23:22:08.410Z,31.17
2022-12-20T23:24:36.037Z,29.70
2022-12-20T23:27:03.453Z,35.53
2022-12-20T23:29:30.598Z,29.07
2022-12-20T23:31:57.734Z,28.37
2022-12-20T23:34:24.811Z,30.73
2022-12-20T23:36:52.011Z,31.03
2022-12-20T23:39:19.113Z,23.03
2022-12-20T23:41:46.439Z,20.97
2022-12-20T23:44:13.590Z,20.03
2022-12-20T23:46:40.625Z,18.33
2022-12-20T23:49:07.690Z,16.47
2022-12-20T23:51:34.760Z,19.27
2022-12-20T23:54:01.894Z,21.70
2022-12-20T23:56:28.940Z,26.63
2022-12-20T23:58:56.219Z,45.20
